Time;durP1;ratioP1;P1;durP2;ratioP2;P2;SDS_P1;SDS_P2;PMS_P1;PMS_P2;Temp;Humidity;BMP_temperature;BMP_pressure;BME280_temperature;BME280_humidity;BME280_pressure;Samples;Min_cycle;Max_cycle;Signal;HPM_P1;HPM_P2
2021/04/11 00:00:10;;;;;;;2.20;0.30;;;13.10;77.70;13.20;99049.00;;;;340590;28;84526;-95
2021/04/11 00:00:28;;;;;;;2.08;0.40;;;13.10;78.20;13.20;99052.00;;;;338860;28;92060;-96
2021/04/11 00:00:40;;;;;;;1.30;0.40;;;13.10;77.60;13.20;99052.00;;;;339292;28;83682;-95
2021/04/11 00:00:51;;;;;;;1.35;0.38;;;13.10;77.60;13.30;99049.00;;;;341618;28;90900;-95
2021/04/11 00:01:03;;;;;;;1.10;0.30;;;13.10;77.50;13.30;99047.00;;;;340549;28;83436;-95
2021/04/11 00:01:14;;;;;;;1.10;0.47;;;13.10;77.60;13.40;99050.00;;;;338597;28;91456;-95
2021/04/11 00:01:26;;;;;;;1.17;0.40;;;13.10;77.50;13.40;99050.00;;;;341284;28;83469;-94
2021/04/11 00:01:37;;;;;;;1.65;0.50;;;13.10;77.50;13.30;99040.00;;;;340128;28;91144;-95
2021/04/11 00:01:49;;;;;;;2.20;0.50;;;13.10;77.40;13.30;99050.00;;;;340538;28;83900;-95
2021/04/11 00:02:00;;;;;;;1.90;0.50;;;13.10;77.40;13.40;99040.00;;;;338790;28;92254;-96
2021/04/11 00:02:12;;;;;;;1.38;0.40;;;13.10;77.40;13.20;99048.00;;;;342028;28;83864;-95
2021/04/11 00:02:23;;;;;;;1.10;0.40;;;13.20;77.40;13.20;99037.00;;;;341038;28;91054;-95
2021/04/11 00:02:35;;;;;;;1.00;0.30;;;13.10;77.50;13.20;99048.00;;;;341933;28;83582;-95
2021/04/11 00:02:46;;;;;;;0.57;0.25;;;13.10;77.50;13.30;99038.00;;;;338873;28;92317;-94
2021/04/11 00:02:58;;;;;;;1.55;0.22;;;13.10;77.50;13.20;99043.00;;;;340469;28;84056;-95
2021/04/11 00:03:19;;;;;;;1.70;0.30;;;13.10;77.50;13.20;99038.00;;;;340285;28;91371;-95
2021/04/11 00:03:31;;;;;;;2.13;0.32;;;13.20;77.50;13.20;99036.00;;;;343297;28;82675;-96
2021/04/11 00:03:42;;;;;;;3.30;0.55;;;13.20;77.50;13.20;99040.00;;;;338946;28;90891;-96
2021/04/11 00:03:54;;;;;;;3.42;0.57;;;13.20;77.40;13.20;99043.00;;;;343486;28;83486;-96
2021/04/11 00:04:05;;;;;;;2.38;0.45;;;13.20;77.50;13.20;99040.00;;;;340243;28;87951;-96
2021/04/11 00:04:17;;;;;;;1.40;0.30;;;13.20;77.40;13.20;99047.00;;;;338945;28;82368;-95
2021/04/11 00:04:28;;;;;;;1.10;0.20;;;13.10;77.50;13.20;99039.00;;;;337159;28;90742;-95
2021/04/11 00:04:39;;;;;;;1.10;0.30;;;13.20;77.50;13.10;99040.00;;;;340225;28;84723;-95
2021/04/11 00:04:52;;;;;;;1.13;0.35;;;13.10;77.60;13.20;99039.00;;;;340847;28;89893;-95
2021/04/11 00:05:05;;;;;;;1.30;0.60;;;13.10;77.60;13.20;99041.00;;;;340597;28;83514;-95
2021/04/11 00:05:18;;;;;;;1.92;0.60;;;13.10;77.50;13.30;99040.00;;;;340075;28;92059;-95
2021/04/11 00:05:36;;;;;;;2.10;0.50;;;13.10;78.10;13.20;99050.00;;;;337894;28;83723;-96
2021/04/11 00:05:48;;;;;;;1.13;0.40;;;13.10;77.50;13.20;99034.00;;;;340048;28;91038;-95
2021/04/11 00:05:59;;;;;;;1.85;0.75;;;13.10;77.50;13.10;99041.00;;;;337960;28;83885;-95
2021/04/11 00:06:11;;;;;;;1.98;0.73;;;13.10;77.70;13.00;99031.00;;;;337648;28;90930;-95
2021/04/11 00:06:23;;;;;;;1.92;0.70;;;13.10;77.70;13.10;99047.00;;;;343331;28;82471;-95
2021/04/11 00:06:34;;;;;;;1.50;0.60;;;13.10;77.60;13.20;99040.00;;;;340273;28;91162;-95
2021/04/11 00:06:45;;;;;;;2.10;0.65;;;13.10;77.80;13.30;99035.00;;;;339297;28;83697;-95
2021/04/11 00:06:57;;;;;;;2.60;0.77;;;13.10;77.70;13.30;99035.00;;;;343129;28;88250;-95
2021/04/11 00:07:09;;;;;;;2.42;0.40;;;13.10;78.20;13.40;99036.00;;;;340821;28;83436;-95
2021/04/11 00:07:20;;;;;;;1.67;0.28;;;13.10;77.70;13.40;99035.00;;;;339619;28;89255;-95
2021/04/11 00:07:32;;;;;;;1.73;0.28;;;13.10;77.70;13.20;99042.00;;;;339852;28;83447;-95
2021/04/11 00:07:43;;;;;;;1.45;0.30;;;13.10;77.80;13.00;99035.00;;;;343257;28;90936;-95
2021/04/11 00:07:55;;;;;;;1.40;0.40;;;13.10;77.80;13.20;99040.00;;;;338253;28;83663;-95
2021/04/11 00:08:07;;;;;;;1.50;0.30;;;13.10;77.70;13.30;99047.00;;;;339287;28;91987;-95
2021/04/11 00:08:19;;;;;;;1.60;0.38;;;13.10;77.70;13.30;99042.00;;;;339105;28;83943;-95
2021/04/11 00:08:30;;;;;;;1.10;0.35;;;13.10;77.70;13.10;99036.00;;;;340510;28;90603;-95
2021/04/11 00:08:42;;;;;;;1.88;0.30;;;13.10;77.70;12.90;99043.00;;;;339608;28;83274;-96
2021/04/11 00:08:53;;;;;;;2.17;0.43;;;13.10;77.90;13.00;99038.00;;;;340558;28;90537;-95
2021/04/11 00:09:05;;;;;;;2.78;0.50;;;13.10;77.90;13.10;99030.00;;;;341006;28;83296;-95
2021/04/11 00:09:17;;;;;;;2.53;0.68;;;13.10;77.80;13.00;99036.00;;;;340341;28;92698;-95
2021/04/11 00:09:28;;;;;;;2.38;0.52;;;13.10;77.80;13.00;99035.00;;;;339449;28;83483;-96
2021/04/11 00:09:41;;;;;;;2.60;0.50;;;13.10;77.80;12.90;99040.00;;;;340289;28;90508;-95
2021/04/11 00:09:52;;;;;;;2.20;0.40;;;13.10;77.90;13.10;99029.00;;;;340902;28;83226;-95
2021/04/11 00:10:09;;;;;;;2.00;0.40;;;13.10;77.90;13.10;99042.00;;;;340595;28;88373;-95
2021/04/11 00:10:27;;;;;;;1.80;0.40;;;13.10;77.90;13.00;99043.00;;;;340487;28;82612;-95
2021/04/11 00:10:41;;;;;;;1.73;0.40;;;13.00;78.00;13.10;99039.00;;;;340446;28;90696;-95
2021/04/11 00:11:02;;;;;;;1.70;0.30;;;13.00;78.00;13.00;99034.00;;;;345893;28;83093;-96
2021/04/11 00:11:14;;;;;;;2.20;0.40;;;13.00;78.10;13.00;99042.00;;;;343082;28;91238;-95
2021/04/11 00:11:25;;;;;;;1.80;0.40;;;13.00;78.10;13.00;99035.00;;;;342157;28;83589;-95
2021/04/11 00:11:37;;;;;;;1.42;0.45;;;13.00;78.20;13.10;99050.00;;;;338963;28;91778;-96
2021/04/11 00:11:48;;;;;;;1.83;0.40;;;13.00;78.30;13.00;99039.00;;;;340563;28;83621;-95
2021/04/11 00:11:59;;;;;;;1.83;0.40;;;13.00;78.40;12.90;99034.00;;;;343251;28;90705;-94
2021/04/11 00:12:11;;;;;;;1.25;0.40;;;13.00;79.00;13.00;99042.00;;;;342362;28;83345;-96
2021/04/11 00:12:22;;;;;;;1.27;0.32;;;13.00;78.40;13.00;99032.00;;;;342237;28;89032;-96
2021/04/11 00:12:34;;;;;;;1.63;0.50;;;13.00;78.40;13.00;99039.00;;;;342170;28;83988;-95
2021/04/11 00:12:45;;;;;;;1.40;0.60;;;13.00;78.50;13.00;99043.00;;;;340424;28;90507;-95
2021/04/11 00:12:57;;;;;;;1.40;0.60;;;12.90;78.50;13.00;99028.00;;;;343490;28;83367;-95
2021/04/11 00:13:18;;;;;;;1.17;0.20;;;12.90;78.50;13.00;99031.00;;;;340581;28;90783;-95
2021/04/11 00:13:35;;;;;;;1.27;0.20;;;12.90;78.50;13.10;99044.00;;;;337905;28;85011;-95
2021/04/11 00:13:47;;;;;;;1.90;0.40;;;12.90;78.50;13.00;99038.00;;;;341433;28;92252;-95
2021/04/11 00:13:58;;;;;;;1.85;0.50;;;12.90;78.50;13.10;99037.00;;;;340747;28;82536;-95
2021/04/11 00:14:10;;;;;;;1.77;0.43;;;12.90;78.60;13.20;99035.00;;;;337592;28;91002;-95
2021/04/11 00:14:21;;;;;;;2.22;0.40;;;12.90;78.50;13.20;99035.00;;;;342460;28;83705;-95
2021/04/11 00:14:33;;;;;;;1.80;0.30;;;12.90;78.50;13.10;99028.00;;;;340023;28;90672;-95
2021/04/11 00:14:44;;;;;;;1.40;0.30;;;12.90;78.50;13.10;99040.00;;;;340511;28;83665;-95
2021/04/11 00:14:55;;;;;;;1.10;0.30;;;12.90;78.40;13.10;99040.00;;;;336489;28;91046;-95
2021/04/11 00:15:08;;;;;;;1.15;0.40;;;13.00;78.50;13.10;99035.00;;;;339494;28;83587;-95
2021/04/11 00:15:20;;;;;;;1.30;0.40;;;12.90;78.60;13.00;99029.00;;;;340430;28;88549;-95
2021/04/11 00:15:31;;;;;;;1.08;0.30;;;12.90;78.70;13.10;99033.00;;;;339635;28;83758;-95
2021/04/11 00:15:43;;;;;;;1.17;0.30;;;12.90;78.70;13.10;99023.00;;;;341841;28;89334;-94
2021/04/11 00:15:55;;;;;;;1.10;0.40;;;12.90;78.80;13.20;99035.00;;;;337770;28;83707;-96
2021/04/11 00:16:07;;;;;;;1.16;0.46;;;12.90;78.70;13.10;99034.00;;;;340347;28;88450;-95
2021/04/11 00:16:18;;;;;;;1.20;0.30;;;12.90;78.70;13.10;99030.00;;;;339037;28;83310;-95
2021/04/11 00:16:29;;;;;;;2.17;0.30;;;12.90;78.70;13.10;99033.00;;;;344110;28;90803;-96
2021/04/11 00:16:41;;;;;;;3.08;0.32;;;12.90;78.80;13.00;99034.00;;;;343143;28;83747;-94
2021/04/11 00:16:53;;;;;;;3.13;0.50;;;12.90;78.70;12.90;99033.00;;;;338766;28;90888;-95
2021/04/11 00:17:05;;;;;;;2.08;0.50;;;12.90;78.80;13.10;99035.00;;;;340529;28;83813;-94
2021/04/11 00:17:17;;;;;;;1.40;0.30;;;12.90;78.80;13.10;99032.00;;;;340218;28;90575;-95
2021/04/11 00:17:29;;;;;;;1.00;0.20;;;12.90;78.70;13.00;99033.00;;;;340167;28;83866;-94
2021/04/11 00:17:41;;;;;;;1.63;0.30;;;12.90;79.40;13.00;99034.00;;;;342821;28;92271;-95
2021/04/11 00:17:53;;;;;;;1.83;0.30;;;12.90;79.00;13.00;99033.00;;;;343090;28;84195;-95
2021/04/11 00:18:05;;;;;;;1.92;0.40;;;12.90;79.00;13.00;99032.00;;;;339899;28;89972;-96
2021/04/11 00:18:16;;;;;;;1.48;0.40;;;12.90;79.00;13.10;99038.00;;;;337682;28;83713;-95
2021/04/11 00:18:28;;;;;;;1.33;0.38;;;12.90;79.00;13.00;99026.00;;;;342786;28;91941;-96
2021/04/11 00:18:39;;;;;;;1.13;0.30;;;12.90;79.00;13.10;99030.00;;;;339267;28;84481;-96
2021/04/11 00:18:50;;;;;;;0.77;0.30;;;12.90;78.90;13.10;99027.00;;;;342927;28;90696;-95
2021/04/11 00:19:02;;;;;;;0.93;0.30;;;12.90;79.00;13.10;99033.00;;;;339235;28;83806;-95
2021/04/11 00:19:14;;;;;;;2.15;0.40;;;12.90;79.00;13.00;99038.00;;;;343858;28;90743;-95
2021/04/11 00:19:25;;;;;;;2.97;0.50;;;12.90;79.00;12.90;99029.00;;;;340312;28;83508;-96
2021/04/11 00:19:36;;;;;;;2.97;0.50;;;12.90;79.60;12.90;99027.00;;;;339595;28;91668;-95
2021/04/11 00:19:48;;;;;;;1.05;0.30;;;12.90;79.00;13.00;99029.00;;;;338852;28;83214;-94
2021/04/11 00:19:59;;;;;;;0.70;0.20;;;12.90;79.00;13.00;99023.00;;;;341293;28;91623;-95
2021/04/11 00:20:11;;;;;;;0.90;0.30;;;12.90;79.60;13.00;99023.00;;;;338693;28;84863;-96
2021/04/11 00:20:23;;;;;;;1.63;0.55;;;12.90;79.10;12.90;99032.00;;;;337270;28;90990;-95
2021/04/11 00:20:34;;;;;;;1.88;0.60;;;12.90;79.10;12.90;99028.00;;;;341553;28;83828;-95
2021/04/11 00:20:45;;;;;;;1.58;0.57;;;12.90;79.10;13.00;99030.00;;;;339997;28;91134;-95
2021/04/11 00:20:57;;;;;;;0.90;0.30;;;12.90;79.00;13.10;99029.00;;;;343013;28;83777;-95
2021/04/11 00:21:09;;;;;;;1.38;0.50;;;12.90;79.00;13.10;99031.00;;;;338704;28;91110;-95
2021/04/11 00:21:20;;;;;;;1.58;0.50;;;12.90;79.00;13.10;99027.00;;;;343204;28;84349;-96
2021/04/11 00:21:32;;;;;;;0.90;0.25;;;12.90;79.00;13.10;99029.00;;;;339827;28;91797;-94
2021/04/11 00:21:43;;;;;;;0.80;0.20;;;12.90;79.00;13.20;99029.00;;;;337651;28;83518;-95
2021/04/11 00:21:55;;;;;;;0.90;0.20;;;12.90;79.00;13.10;99032.00;;;;338674;28;90367;-96
2021/04/11 00:22:06;;;;;;;1.25;0.20;;;12.90;79.00;13.10;99030.00;;;;339272;28;83344;-95
2021/04/11 00:22:18;;;;;;;1.48;0.30;;;12.90;79.00;13.00;99022.00;;;;339418;28;91106;-96
2021/04/11 00:22:30;;;;;;;1.60;0.30;;;12.90;79.00;13.00;99022.00;;;;341599;28;82683;-95
2021/04/11 00:22:41;;;;;;;1.70;0.30;;;12.90;79.00;13.00;99028.00;;;;338955;28;88464;-96
2021/04/11 00:22:53;;;;;;;1.27;0.30;;;12.90;79.00;12.90;99025.00;;;;340008;28;82472;-95
2021/04/11 00:23:04;;;;;;;1.63;0.40;;;12.90;79.10;13.00;99022.00;;;;342650;28;90960;-96
2021/04/11 00:23:17;;;;;;;2.60;1.02;;;12.80;79.00;13.00;99020.00;;;;341796;28;84061;-95
2021/04/11 00:23:29;;;;;;;2.65;1.08;;;12.90;79.10;13.00;99025.00;;;;339845;28;93602;-95
2021/04/11 00:23:40;;;;;;;1.90;0.77;;;12.90;79.10;13.00;99026.00;;;;342994;28;83474;-94
2021/04/11 00:23:52;;;;;;;1.77;0.70;;;12.90;79.00;13.00;99020.00;;;;342831;28;88293;-95
2021/04/11 00:24:04;;;;;;;1.90;0.56;;;12.90;79.10;12.80;99024.00;;;;339110;28;84655;-95
2021/04/11 00:24:15;;;;;;;1.83;0.50;;;12.90;79.20;12.80;99021.00;;;;342634;28;91051;-95
2021/04/11 00:24:26;;;;;;;1.75;0.40;;;12.80;79.40;12.90;99027.00;;;;337627;28;83363;-95
2021/04/11 00:24:38;;;;;;;1.70;0.40;;;12.80;79.40;13.00;99027.00;;;;342553;28;87753;-96
2021/04/11 00:24:50;;;;;;;2.08;0.38;;;12.90;79.40;13.00;99026.00;;;;337971;28;82349;-96
2021/04/11 00:25:13;;;;;;;1.52;0.30;;;12.80;79.40;13.00;99020.00;;;;341605;28;87953;-96
2021/04/11 00:25:31;;;;;;;1.52;0.30;;;12.80;79.40;13.10;99027.00;;;;341471;28;84176;-96
2021/04/11 00:25:44;;;;;;;1.40;0.30;;;12.90;79.50;13.00;99021.00;;;;341352;28;92968;-95
2021/04/11 00:25:55;;;;;;;1.30;0.30;;;12.90;79.60;12.80;99022.00;;;;338938;28;83660;-96
2021/04/11 00:26:07;;;;;;;1.48;0.38;;;12.80;79.60;12.90;99016.00;;;;338810;28;88090;-95
2021/04/11 00:26:18;;;;;;;1.63;0.45;;;12.80;79.40;13.00;99026.00;;;;341590;28;83460;-96
2021/04/11 00:26:30;;;;;;;1.63;0.40;;;12.80;79.50;13.10;99021.00;;;;340036;28;91257;-95
2021/04/11 00:26:41;;;;;;;1.33;0.30;;;12.90;79.50;13.10;99029.00;;;;340358;28;83800;-95
2021/04/11 00:26:53;;;;;;;1.85;0.40;;;12.90;79.60;13.10;99023.00;;;;338545;28;91205;-95
2021/04/11 00:27:05;;;;;;;1.80;0.30;;;12.90;79.50;13.10;99026.00;;;;336387;28;82821;-95
2021/04/11 00:27:17;;;;;;;1.65;0.20;;;12.90;79.50;13.10;99019.00;;;;340138;28;90200;-95
2021/04/11 00:27:28;;;;;;;1.70;0.30;;;12.90;79.40;13.20;99018.00;;;;337773;28;83787;-94
2021/04/11 00:27:40;;;;;;;1.75;0.30;;;12.90;79.50;13.10;99017.00;;;;338484;28;92103;-95
2021/04/11 00:27:51;;;;;;;1.45;0.35;;;12.90;79.60;13.10;99015.00;;;;336396;28;83632;-96
2021/04/11 00:28:03;;;;;;;1.40;0.30;;;12.90;79.50;13.20;99012.00;;;;339771;28;90729;-95
2021/04/11 00:28:15;;;;;;;1.52;0.40;;;12.90;79.30;13.20;99018.00;;;;341509;28;83798;-94
2021/04/11 00:28:26;;;;;;;1.67;0.40;;;12.90;79.40;13.30;99016.00;;;;337919;28;91061;-95
2021/04/11 00:28:37;;;;;;;2.17;0.47;;;12.90;79.40;13.30;99016.00;;;;340297;28;83621;-95
2021/04/11 00:28:49;;;;;;;1.58;0.30;;;12.90;79.30;13.20;99011.00;;;;342597;28;91762;-96
2021/04/11 00:29:02;;;;;;;3.38;0.30;;;12.90;79.30;13.20;99012.00;;;;342929;28;84609;-95
2021/04/11 00:29:14;;;;;;;3.45;0.35;;;12.90;79.20;13.10;99018.00;;;;342759;28;91000;-96
2021/04/11 00:29:25;;;;;;;1.42;0.30;;;12.90;79.20;13.10;99010.00;;;;341952;28;82963;-96
2021/04/11 00:29:36;;;;;;;1.08;0.32;;;12.90;79.30;13.10;99020.00;;;;338624;28;92340;-95
2021/04/11 00:29:48;;;;;;;1.05;0.30;;;12.90;79.30;13.10;99018.00;;;;340372;28;84020;-95
2021/04/11 00:29:59;;;;;;;1.13;0.22;;;12.90;79.30;13.20;99019.00;;;;338692;28;88236;-96
2021/04/11 00:30:13;;;;;;;1.42;0.25;;;12.90;79.30;13.20;99020.00;;;;338947;28;83878;-96
2021/04/11 00:30:25;;;;;;;1.70;0.30;;;13.00;79.50;13.00;99007.00;;;;340001;28;91199;-95
2021/04/11 00:30:36;;;;;;;1.95;0.30;;;13.00;79.70;13.10;99008.00;;;;339157;28;82448;-95
2021/04/11 00:30:48;;;;;;;1.88;0.47;;;12.90;79.60;13.20;99010.00;;;;341439;28;90881;-95
2021/04/11 00:30:59;;;;;;;1.55;0.50;;;12.90;79.40;13.20;99013.00;;;;340281;28;83454;-95
2021/04/11 00:31:12;;;;;;;1.63;0.40;;;13.00;79.40;13.20;99012.00;;;;338519;28;90183;-95
2021/04/11 00:31:23;;;;;;;1.75;0.30;;;13.00;79.30;13.20;99016.00;;;;344152;28;83631;-95
2021/04/11 00:31:38;;;;;;;1.52;0.30;;;13.00;79.30;13.00;99015.00;;;;339536;28;90915;-96
2021/04/11 00:31:50;;;;;;;1.67;0.25;;;13.00;79.40;12.90;99009.00;;;;344476;28;84742;-95
2021/04/11 00:32:01;;;;;;;1.83;0.22;;;13.00;79.50;13.00;99002.00;;;;342670;28;90895;-95
2021/04/11 00:32:13;;;;;;;1.42;0.30;;;12.90;79.30;13.10;99016.00;;;;341596;28;83750;-95
2021/04/11 00:32:25;;;;;;;1.04;0.36;;;12.90;79.30;13.00;99009.00;;;;339861;28;91213;-95
2021/04/11 00:32:36;;;;;;;1.00;0.30;;;13.00;79.40;13.00;99009.00;;;;339175;28;84137;-95
2021/04/11 00:32:49;;;;;;;1.10;0.30;;;12.90;79.30;13.00;99008.00;;;;337502;28;91698;-96
2021/04/11 00:33:03;;;;;;;0.93;0.30;;;12.90;79.50;13.00;99005.00;;;;339169;28;82424;-95
2021/04/11 00:33:35;;;;;;;1.08;0.40;;;12.90;79.50;13.10;99010.00;;;;340118;28;92965;-95
2021/04/11 00:33:46;;;;;;;1.90;0.32;;;12.90;79.40;13.10;99008.00;;;;339234;28;84165;-95
2021/04/11 00:33:58;;;;;;;1.40;0.36;;;12.90;79.40;13.10;99006.00;;;;338731;28;92153;-95
2021/04/11 00:34:09;;;;;;;1.20;0.30;;;12.90;79.30;13.00;99008.00;;;;337835;28;83434;-96
2021/04/11 00:34:20;;;;;;;0.88;0.20;;;12.90;79.40;12.90;99012.00;;;;340225;28;89916;-95
2021/04/11 00:34:32;;;;;;;0.75;0.20;;;12.90;79.50;13.00;99007.00;;;;341640;28;83537;-95
2021/04/11 00:34:43;;;;;;;0.70;0.20;;;12.90;79.50;13.10;99009.00;;;;341496;28;90968;-95
2021/04/11 00:34:55;;;;;;;0.63;0.20;;;12.90;79.50;13.10;99007.00;;;;337724;28;84726;-95
2021/04/11 00:35:07;;;;;;;0.80;0.30;;;12.90;79.40;12.90;99004.00;;;;342782;28;90892;-95
2021/04/11 00:35:19;;;;;;;1.30;0.30;;;12.90;79.50;13.00;99012.00;;;;338138;28;83647;-95
2021/04/11 00:35:30;;;;;;;1.75;0.30;;;12.90;79.50;13.00;99006.00;;;;340242;28;90985;-95
2021/04/11 00:35:44;;;;;;;1.98;0.22;;;12.90;79.50;13.00;99008.00;;;;340554;28;82512;-94
2021/04/11 00:36:00;;;;;;;1.48;0.20;;;12.90;79.50;12.80;99014.00;;;;338985;28;91633;-96
2021/04/11 00:36:17;;;;;;;0.77;0.20;;;12.90;79.70;12.90;99009.00;;;;340144;28;83718;-95
2021/04/11 00:36:28;;;;;;;0.93;0.20;;;12.90;79.70;13.00;99008.00;;;;340023;28;90806;-95
2021/04/11 00:36:42;;;;;;;1.00;0.30;;;12.90;80.40;13.00;99010.00;;;;339086;28;83413;-96
2021/04/11 00:36:54;;;;;;;1.00;0.28;;;12.90;79.90;12.90;99009.00;;;;338904;28;90477;-95
2021/04/11 00:37:05;;;;;;;1.10;0.30;;;12.90;79.90;13.00;99010.00;;;;338052;28;82400;-95
2021/04/11 00:37:17;;;;;;;1.40;0.40;;;12.90;79.90;13.00;99003.00;;;;339850;28;91975;-95
2021/04/11 00:37:28;;;;;;;1.95;0.40;;;12.90;79.90;13.00;99009.00;;;;341424;28;83155;-95
2021/04/11 00:37:39;;;;;;;1.80;0.30;;;12.90;79.80;13.10;99011.00;;;;339949;28;90806;-96
2021/04/11 00:37:51;;;;;;;1.33;0.28;;;12.90;79.80;12.90;99005.00;;;;341113;28;83241;-95
2021/04/11 00:38:02;;;;;;;1.83;0.30;;;12.90;79.80;13.00;99006.00;;;;337468;28;92561;-95
2021/04/11 00:38:14;;;;;;;2.88;0.52;;;12.90;79.80;13.00;99000.00;;;;340295;28;83781;-95
2021/04/11 00:38:26;;;;;;;4.35;0.60;;;12.90;79.80;13.10;99011.00;;;;338578;28;91282;-96
2021/04/11 00:38:37;;;;;;;4.10;0.55;;;12.90;79.80;13.10;99005.00;;;;338811;28;83647;-94
2021/04/11 00:38:48;;;;;;;4.22;0.40;;;12.90;79.80;13.10;99009.00;;;;340077;28;90601;-96
2021/04/11 00:39:00;;;;;;;3.97;0.50;;;12.90;79.70;13.20;99004.00;;;;338994;28;82832;-95
2021/04/11 00:39:13;;;;;;;3.53;0.40;;;12.90;79.80;13.10;99014.00;;;;341369;28;90902;-95
2021/04/11 00:39:24;;;;;;;2.85;0.32;;;12.90;79.80;13.10;99008.00;;;;341705;28;83905;-96
2021/04/11 00:39:35;;;;;;;3.28;0.30;;;12.90;79.80;13.10;99010.00;;;;341214;28;91027;-96
2021/04/11 00:39:47;;;;;;;3.30;0.30;;;12.90;79.90;13.00;98999.00;;;;339157;28;83029;-94
2021/04/11 00:39:59;;;;;;;2.10;0.30;;;12.90;80.00;13.10;99005.00;;;;342607;28;92507;-95
2021/04/11 00:40:13;;;;;;;1.02;0.20;;;12.90;79.80;13.10;99012.00;;;;338949;28;83553;-96
2021/04/11 00:40:36;;;;;;;1.08;0.30;;;12.80;79.90;13.10;99005.00;;;;339421;28;88362;-95
2021/04/11 00:40:48;;;;;;;1.73;0.30;;;12.80;80.00;13.20;98999.00;;;;340291;28;83401;-95
2021/04/11 00:41:18;;;;;;;1.65;0.40;;;12.80;80.00;13.10;99004.00;;;;341124;28;89407;-95
2021/04/11 00:41:38;;;;;;;1.45;0.20;;;12.90;80.00;13.00;99004.00;;;;340259;28;83902;-94
2021/04/11 00:41:52;;;;;;;1.40;0.32;;;12.90;80.00;12.90;99008.00;;;;338661;28;90255;-95
2021/04/11 00:42:09;;;;;;;1.20;0.30;;;12.80;80.10;13.00;99001.00;;;;338939;28;83779;-95
2021/04/11 00:42:33;;;;;;;1.60;0.20;;;12.80;80.10;13.00;98996.00;;;;341223;28;90457;-95
2021/04/11 00:42:44;;;;;;;1.27;0.30;;;12.80;80.10;13.10;99003.00;;;;340342;28;83658;-95
2021/04/11 00:43:02;;;;;;;1.40;0.30;;;12.90;80.10;13.20;98995.00;;;;335824;28;91692;-95
2021/04/11 00:43:15;;;;;;;2.50;0.30;;;12.90;79.90;13.00;98992.00;;;;337805;28;83851;-95
2021/04/11 00:43:27;;;;;;;2.35;0.30;;;12.90;80.00;13.00;98995.00;;;;338674;28;91136;-95
2021/04/11 00:43:38;;;;;;;2.10;0.30;;;12.90;79.90;13.00;98989.00;;;;338895;28;85168;-95
2021/04/11 00:43:50;;;;;;;1.90;0.22;;;12.90;79.90;12.90;98995.00;;;;337969;28;92031;-96
2021/04/11 00:44:04;;;;;;;1.83;0.32;;;12.80;80.00;13.00;98993.00;;;;340481;28;85038;-95
2021/04/11 00:44:15;;;;;;;0.98;0.40;;;12.80;79.90;13.00;98995.00;;;;338557;28;91814;-95
2021/04/11 00:44:26;;;;;;;0.90;0.40;;;12.90;79.90;13.10;98993.00;;;;337617;28;83377;-96
2021/04/11 00:44:38;;;;;;;0.82;0.30;;;12.80;79.80;13.00;98991.00;;;;338781;28;91288;-95
2021/04/11 00:44:50;;;;;;;1.13;0.25;;;12.80;79.90;13.10;98987.00;;;;340389;28;83772;-95
2021/04/11 00:45:49;;;;;;;1.10;0.20;;;12.80;79.90;13.10;98994.00;;;;337321;28;91462;-96
2021/04/11 00:46:12;;;;;;;1.15;0.30;;;12.90;79.80;13.00;98992.00;;;;338975;28;83641;-95
2021/04/11 00:46:46;;;;;;;1.60;0.30;;;12.80;79.90;13.00;98981.00;;;;336184;28;93999;-95
2021/04/11 00:46:58;;;;;;;0.88;0.20;;;12.90;80.00;12.90;98993.00;;;;338789;28;83873;-96
2021/04/11 00:47:09;;;;;;;1.08;0.20;;;12.80;79.80;13.10;98996.00;;;;337432;28;91309;-95
2021/04/11 00:47:21;;;;;;;1.42;0.20;;;12.80;79.80;13.00;98984.00;;;;334010;29;84725;-96
2021/04/11 00:47:32;;;;;;;1.88;0.20;;;12.80;79.80;12.90;98993.00;;;;338683;28;91219;-95
2021/04/11 00:47:46;;;;;;;2.38;0.40;;;12.80;79.80;12.90;98997.00;;;;337508;28;84964;-95
2021/04/11 00:47:58;;;;;;;1.48;0.50;;;12.80;79.80;13.00;98986.00;;;;337231;28;91152;-95
2021/04/11 00:48:10;;;;;;;1.98;0.32;;;12.80;79.80;13.10;98984.00;;;;335034;29;83671;-96
2021/04/11 00:48:23;;;;;;;1.77;0.28;;;12.80;79.90;12.90;98987.00;;;;338452;28;92275;-95
2021/04/11 00:48:35;;;;;;;1.27;0.20;;;12.80;80.10;13.00;98980.00;;;;337667;28;83708;-96
2021/04/11 00:48:46;;;;;;;0.90;0.20;;;12.80;80.00;13.00;98981.00;;;;338762;28;90731;-96
2021/04/11 00:49:00;;;;;;;1.63;0.30;;;12.80;80.40;13.00;98983.00;;;;340240;28;84889;-96
2021/04/11 00:49:27;;;;;;;2.22;0.30;;;12.80;79.80;13.00;98989.00;;;;338680;28;91312;-95
2021/04/11 00:49:43;;;;;;;1.95;0.20;;;12.80;80.40;13.00;98987.00;;;;340125;28;83915;-96
2021/04/11 00:49:55;;;;;;;2.40;0.30;;;12.80;79.80;13.00;98983.00;;;;337196;28;90063;-95
2021/04/11 00:50:08;;;;;;;1.70;0.30;;;12.80;80.00;12.90;98982.00;;;;337705;28;83757;-96
2021/04/11 00:50:19;;;;;;;0.95;0.50;;;12.80;80.00;12.90;98988.00;;;;336128;28;90370;-95
2021/04/11 00:50:31;;;;;;;1.00;0.50;;;12.80;79.80;13.00;98987.00;;;;338966;28;83646;-96
2021/04/11 00:50:53;;;;;;;0.95;0.20;;;12.80;79.80;12.90;98984.00;;;;335968;28;91988;-96
2021/04/11 00:51:09;;;;;;;0.85;0.20;;;12.80;80.00;12.70;98989.00;;;;338885;28;84721;-95
2021/04/11 00:51:25;;;;;;;1.42;0.30;;;12.80;80.10;12.70;98986.00;;;;335630;28;91207;-96
2021/04/11 00:51:36;;;;;;;1.98;0.30;;;12.80;80.10;12.70;98993.00;;;;334927;29;82529;-96
2021/04/11 00:51:48;;;;;;;2.28;0.25;;;12.80;80.10;12.70;98985.00;;;;337452;28;90390;-96
2021/04/11 00:52:00;;;;;;;1.98;0.30;;;12.70;80.00;12.70;98985.00;;;;340217;28;83856;-95
2021/04/11 00:52:14;;;;;;;0.90;0.30;;;12.70;80.60;12.80;98984.00;;;;338638;28;90866;-95
2021/04/11 00:52:25;;;;;;;0.93;0.30;;;12.70;80.10;12.90;98986.00;;;;336228;28;84088;-96
2021/04/11 00:52:36;;;;;;;0.98;0.20;;;12.70;80.00;13.00;98981.00;;;;335805;28;90734;-95
2021/04/11 00:52:48;;;;;;;1.52;0.30;;;12.70;80.00;12.90;98990.00;;;;335464;28;83798;-96
2021/04/11 00:52:59;;;;;;;1.48;0.30;;;12.70;80.00;12.80;98993.00;;;;338476;28;92172;-95
2021/04/11 00:53:11;;;;;;;1.20;0.30;;;12.80;80.10;12.90;98982.00;;;;340427;28;82394;-95
2021/04/11 00:53:22;;;;;;;0.88;0.20;;;12.80;80.10;12.90;98986.00;;;;339268;28;90664;-95
2021/04/11 00:53:34;;;;;;;0.80;0.20;;;12.70;80.10;12.90;98987.00;;;;337586;28;83151;-95
2021/04/11 00:53:45;;;;;;;1.00;0.22;;;12.70;80.00;12.70;98994.00;;;;337331;28;89366;-95
2021/04/11 00:53:59;;;;;;;1.13;0.30;;;12.70;80.20;12.70;98992.00;;;;336231;28;83558;-96
2021/04/11 00:54:10;;;;;;;1.30;0.30;;;12.70;80.10;12.70;98988.00;;;;339510;28;91289;-95
2021/04/11 00:54:21;;;;;;;1.25;0.30;;;12.70;80.10;12.80;98990.00;;;;336358;28;82474;-95
2021/04/11 00:54:33;;;;;;;1.20;0.25;;;12.70;80.20;12.90;98991.00;;;;338764;28;87939;-95
2021/04/11 00:54:44;;;;;;;1.30;0.30;;;12.70;80.20;12.80;98990.00;;;;336381;28;83370;-95
2021/04/11 00:54:56;;;;;;;1.13;0.30;;;12.70;80.30;12.80;98989.00;;;;337024;28;92436;-94
2021/04/11 00:55:08;;;;;;;1.15;0.20;;;12.70;80.30;12.80;98992.00;;;;339020;28;83689;-95
2021/04/11 00:55:21;;;;;;;1.50;0.30;;;12.70;80.30;12.90;98987.00;;;;337553;28;91244;-94
2021/04/11 00:55:33;;;;;;;1.35;0.30;;;12.70;80.80;12.90;98988.00;;;;337562;28;83705;-96
2021/04/11 00:55:44;;;;;;;1.20;0.22;;;12.70;80.20;13.00;98992.00;;;;338578;28;90805;-95
2021/04/11 00:55:56;;;;;;;0.68;0.20;;;12.70;80.20;12.80;98988.00;;;;336530;28;83803;-96
2021/04/11 00:56:07;;;;;;;1.20;0.30;;;12.70;80.30;12.70;98992.00;;;;338855;28;90597;-96
2021/04/11 00:56:19;;;;;;;1.20;0.35;;;12.70;80.50;12.70;98988.00;;;;334977;29;82699;-96
2021/04/11 00:56:31;;;;;;;1.13;0.32;;;12.70;80.70;12.80;98987.00;;;;334747;29;91046;-96
2021/04/11 00:56:43;;;;;;;0.95;0.30;;;12.70;80.50;12.70;98988.00;;;;337725;28;83767;-95
2021/04/11 00:56:54;;;;;;;1.45;0.30;;;12.60;80.40;12.60;98991.00;;;;337202;28;91802;-95
2021/04/11 00:57:07;;;;;;;1.42;0.30;;;12.60;80.40;12.60;98989.00;;;;340221;28;84110;-95
2021/04/11 00:57:18;;;;;;;1.00;0.30;;;12.60;80.60;12.70;98993.00;;;;335863;28;91810;-95
2021/04/11 00:57:29;;;;;;;1.10;0.43;;;12.60;80.50;12.70;98987.00;;;;338959;28;83662;-95
2021/04/11 00:57:41;;;;;;;1.10;0.40;;;12.60;80.50;12.60;98993.00;;;;335739;28;90179;-95